sensor_id;sensor_type;location;lat;lon;timestamp;P1;durP1;ratioP1;P2;durP2;ratioP2
10831;SDS011;5469;48.574;8.768;2022-11-27T00:02:25;3.30;;;1.00;;
10831;SDS011;5469;48.574;8.768;2022-11-27T00:04:59;1.17;;;0.70;;
10831;SDS011;5469;48.574;8.768;2022-11-27T00:07:32;1.17;;;0.97;;
10831;SDS011;5469;48.574;8.768;2022-11-27T00:10:06;0.67;;;0.67;;
10831;SDS011;5469;48.574;8.768;2022-11-27T00:12:40;0.70;;;0.60;;
10831;SDS011;5469;48.574;8.768;2022-11-27T00:15:13;0.60;;;0.60;;
10831;SDS011;5469;48.574;8.768;2022-11-27T00:17:48;0.93;;;0.73;;
10831;SDS011;5469;48.574;8.768;2022-11-27T00:20:22;0.60;;;0.60;;
10831;SDS011;5469;48.574;8.768;2022-11-27T00:22:55;1.30;;;0.77;;
10831;SDS011;5469;48.574;8.768;2022-11-27T00:25:28;1.10;;;0.60;;
10831;SDS011;5469;48.574;8.768;2022-11-27T00:28:02;0.73;;;0.70;;
10831;SDS011;5469;48.574;8.768;2022-11-27T00:30:35;0.63;;;0.50;;
10831;SDS011;5469;48.574;8.768;2022-11-27T00:33:10;0.40;;;0.40;;
10831;SDS011;5469;48.574;8.768;2022-11-27T00:35:43;0.40;;;0.40;;
10831;SDS011;5469;48.574;8.768;2022-11-27T00:38:17;0.70;;;0.70;;
10831;SDS011;5469;48.574;8.768;2022-11-27T00:40:51;0.63;;;0.63;;
10831;SDS011;5469;48.574;8.768;2022-11-27T00:43:24;1.00;;;0.57;;
10831;SDS011;5469;48.574;8.768;2022-11-27T00:45:57;0.50;;;0.50;;
10831;SDS011;5469;48.574;8.768;2022-11-27T00:48:32;0.83;;;0.83;;
10831;SDS011;5469;48.574;8.768;2022-11-27T00:51:07;0.73;;;0.43;;
10831;SDS011;5469;48.574;8.768;2022-11-27T00:53:42;0.70;;;0.70;;
10831;SDS011;5469;48.574;8.768;2022-11-27T00:56:16;0.50;;;0.47;;
10831;SDS011;5469;48.574;8.768;2022-11-27T00:58:51;0.70;;;0.60;;
10831;SDS011;5469;48.574;8.768;2022-11-27T01:01:26;0.40;;;0.40;;
10831;SDS011;5469;48.574;8.768;2022-11-27T01:04:03;0.50;;;0.50;;
10831;SDS011;5469;48.574;8.768;2022-11-27T01:06:38;0.50;;;0.50;;
10831;SDS011;5469;48.574;8.768;2022-11-27T01:09:12;0.87;;;0.67;;
10831;SDS011;5469;48.574;8.768;2022-11-27T01:11:45;1.30;;;0.63;;
10831;SDS011;5469;48.574;8.768;2022-11-27T01:14:19;0.37;;;0.37;;
10831;SDS011;5469;48.574;8.768;2022-11-27T01:16:52;0.23;;;0.23;;
10831;SDS011;5469;48.574;8.768;2022-11-27T01:19:27;0.83;;;0.57;;
10831;SDS011;5469;48.574;8.768;2022-11-27T01:22:00;0.20;;;0.20;;
10831;SDS011;5469;48.574;8.768;2022-11-27T01:24:33;0.37;;;0.37;;
10831;SDS011;5469;48.574;8.768;2022-11-27T01:27:07;0.40;;;0.40;;
10831;SDS011;5469;48.574;8.768;2022-11-27T01:29:40;1.40;;;0.90;;
10831;SDS011;5469;48.574;8.768;2022-11-27T01:32:13;0.30;;;0.30;;
10831;SDS011;5469;48.574;8.768;2022-11-27T01:34:48;1.10;;;0.87;;
10831;SDS011;5469;48.574;8.768;2022-11-27T01:37:22;1.60;;;0.50;;
10831;SDS011;5469;48.574;8.768;2022-11-27T01:39:55;0.47;;;0.43;;
10831;SDS011;5469;48.574;8.768;2022-11-27T01:42:28;0.67;;;0.67;;
10831;SDS011;5469;48.574;8.768;2022-11-27T01:45:02;0.83;;;0.70;;
10831;SDS011;5469;48.574;8.768;2022-11-27T01:47:38;0.33;;;0.33;;
10831;SDS011;5469;48.574;8.768;2022-11-27T01:50:18;0.83;;;0.53;;
10831;SDS011;5469;48.574;8.768;2022-11-27T01:52:54;0.53;;;0.53;;
10831;SDS011;5469;48.574;8.768;2022-11-27T01:55:34;1.33;;;1.07;;
10831;SDS011;5469;48.574;8.768;2022-11-27T01:58:10;0.90;;;0.77;;
10831;SDS011;5469;48.574;8.768;2022-11-27T02:00:47;1.13;;;0.50;;
10831;SDS011;5469;48.574;8.768;2022-11-27T02:03:20;0.33;;;0.33;;
10831;SDS011;5469;48.574;8.768;2022-11-27T02:05:55;1.30;;;0.90;;
10831;SDS011;5469;48.574;8.768;2022-11-27T02:08:29;0.77;;;0.30;;
10831;SDS011;5469;48.574;8.768;2022-11-27T02:11:04;0.20;;;0.20;;
10831;SDS011;5469;48.574;8.768;2022-11-27T02:13:45;0.60;;;0.60;;
10831;SDS011;5469;48.574;8.768;2022-11-27T02:16:27;0.73;;;0.70;;
10831;SDS011;5469;48.574;8.768;2022-11-27T02:19:06;0.50;;;0.50;;
10831;SDS011;5469;48.574;8.768;2022-11-27T02:21:50;0.43;;;0.43;;
10831;SDS011;5469;48.574;8.768;2022-11-27T02:24:36;0.47;;;0.30;;
10831;SDS011;5469;48.574;8.768;2022-11-27T02:27:23;0.40;;;0.40;;
10831;SDS011;5469;48.574;8.768;2022-11-27T02:30:13;0.77;;;0.50;;
10831;SDS011;5469;48.574;8.768;2022-11-27T02:32:48;0.80;;;0.60;;
10831;SDS011;5469;48.574;8.768;2022-11-27T02:35:27;1.20;;;0.80;;
10831;SDS011;5469;48.574;8.768;2022-11-27T02:38:06;0.23;;;0.23;;
10831;SDS011;5469;48.574;8.768;2022-11-27T02:40:44;0.83;;;0.40;;
10831;SDS011;5469;48.574;8.768;2022-11-27T02:43:23;0.87;;;0.83;;
10831;SDS011;5469;48.574;8.768;2022-11-27T02:46:04;0.83;;;0.40;;
10831;SDS011;5469;48.574;8.768;2022-11-27T02:48:41;0.80;;;0.50;;
10831;SDS011;5469;48.574;8.768;2022-11-27T02:51:17;0.60;;;0.60;;
10831;SDS011;5469;48.574;8.768;2022-11-27T02:53:55;0.70;;;0.57;;
10831;SDS011;5469;48.574;8.768;2022-11-27T02:56:31;0.67;;;0.30;;
10831;SDS011;5469;48.574;8.768;2022-11-27T02:59:10;0.43;;;0.23;;
10831;SDS011;5469;48.574;8.768;2022-11-27T03:01:48;0.20;;;0.20;;
10831;SDS011;5469;48.574;8.768;2022-11-27T03:04:26;0.30;;;0.30;;
10831;SDS011;5469;48.574;8.768;2022-11-27T03:07:07;0.20;;;0.20;;
10831;SDS011;5469;48.574;8.768;2022-11-27T03:09:45;0.20;;;0.20;;
10831;SDS011;5469;48.574;8.768;2022-11-27T03:12:21;0.40;;;0.40;;
10831;SDS011;5469;48.574;8.768;2022-11-27T03:14:55;0.90;;;0.47;;
10831;SDS011;5469;48.574;8.768;2022-11-27T03:17:34;0.50;;;0.50;;
10831;SDS011;5469;48.574;8.768;2022-11-27T03:20:14;0.33;;;0.33;;
10831;SDS011;5469;48.574;8.768;2022-11-27T03:22:52;0.23;;;0.23;;
10831;SDS011;5469;48.574;8.768;2022-11-27T03:25:26;0.40;;;0.40;;
10831;SDS011;5469;48.574;8.768;2022-11-27T03:28:01;0.10;;;0.10;;
10831;SDS011;5469;48.574;8.768;2022-11-27T03:30:36;1.63;;;0.50;;
10831;SDS011;5469;48.574;8.768;2022-11-27T03:33:13;0.17;;;0.17;;
10831;SDS011;5469;48.574;8.768;2022-11-27T03:35:48;1.33;;;0.43;;
10831;SDS011;5469;48.574;8.768;2022-11-27T03:38:21;0.53;;;0.47;;
10831;SDS011;5469;48.574;8.768;2022-11-27T03:40:57;0.50;;;0.43;;
10831;SDS011;5469;48.574;8.768;2022-11-27T03:43:39;0.23;;;0.23;;
10831;SDS011;5469;48.574;8.768;2022-11-27T03:46:21;0.47;;;0.47;;
10831;SDS011;5469;48.574;8.768;2022-11-27T03:49:02;0.00;;;0.00;;
10831;SDS011;5469;48.574;8.768;2022-11-27T03:51:48;0.57;;;0.37;;
10831;SDS011;5469;48.574;8.768;2022-11-27T03:54:30;0.33;;;0.33;;
10831;SDS011;5469;48.574;8.768;2022-11-27T03:57:16;0.60;;;0.27;;
10831;SDS011;5469;48.574;8.768;2022-11-27T03:59:55;0.23;;;0.23;;
10831;SDS011;5469;48.574;8.768;2022-11-27T04:02:38;1.37;;;0.40;;
10831;SDS011;5469;48.574;8.768;2022-11-27T04:05:14;1.73;;;0.50;;
10831;SDS011;5469;48.574;8.768;2022-11-27T04:07:48;0.47;;;0.47;;
10831;SDS011;5469;48.574;8.768;2022-11-27T04:10:21;0.30;;;0.30;;
10831;SDS011;5469;48.574;8.768;2022-11-27T04:12:55;0.50;;;0.30;;
10831;SDS011;5469;48.574;8.768;2022-11-27T04:15:28;0.17;;;0.17;;
10831;SDS011;5469;48.574;8.768;2022-11-27T04:18:01;0.40;;;0.40;;
10831;SDS011;5469;48.574;8.768;2022-11-27T04:20:36;2.63;;;1.10;;
10831;SDS011;5469;48.574;8.768;2022-11-27T04:23:10;0.10;;;0.10;;
10831;SDS011;5469;48.574;8.768;2022-11-27T04:25:43;1.40;;;0.67;;
10831;SDS011;5469;48.574;8.768;2022-11-27T04:28:17;0.37;;;0.37;;
10831;SDS011;5469;48.574;8.768;2022-11-27T04:30:50;1.50;;;0.60;;
10831;SDS011;5469;48.574;8.768;2022-11-27T04:33:25;0.20;;;0.20;;
10831;SDS011;5469;48.574;8.768;2022-11-27T04:36:00;0.30;;;0.30;;
10831;SDS011;5469;48.574;8.768;2022-11-27T04:38:34;1.43;;;0.63;;
10831;SDS011;5469;48.574;8.768;2022-11-27T04:41:07;0.47;;;0.40;;
10831;SDS011;5469;48.574;8.768;2022-11-27T04:43:40;0.83;;;0.73;;
10831;SDS011;5469;48.574;8.768;2022-11-27T04:46:14;0.77;;;0.73;;
10831;SDS011;5469;48.574;8.768;2022-11-27T04:48:47;0.40;;;0.37;;
10831;SDS011;5469;48.574;8.768;2022-11-27T04:51:22;0.30;;;0.20;;
10831;SDS011;5469;48.574;8.768;2022-11-27T04:53:55;0.93;;;0.57;;
10831;SDS011;5469;48.574;8.768;2022-11-27T04:56:29;0.30;;;0.30;;
10831;SDS011;5469;48.574;8.768;2022-11-27T04:59:02;0.27;;;0.27;;
10831;SDS011;5469;48.574;8.768;2022-11-27T05:01:36;1.80;;;0.60;;
10831;SDS011;5469;48.574;8.768;2022-11-27T05:04:10;0.13;;;0.13;;
10831;SDS011;5469;48.574;8.768;2022-11-27T05:06:44;1.27;;;1.17;;
10831;SDS011;5469;48.574;8.768;2022-11-27T05:09:18;0.37;;;0.37;;
10831;SDS011;5469;48.574;8.768;2022-11-27T05:11:52;0.13;;;0.13;;
10831;SDS011;5469;48.574;8.768;2022-11-27T05:14:25;1.00;;;0.67;;
10831;SDS011;5469;48.574;8.768;2022-11-27T05:17:00;0.93;;;0.87;;
10831;SDS011;5469;48.574;8.768;2022-11-27T05:19:34;1.10;;;0.83;;
10831;SDS011;5469;48.574;8.768;2022-11-27T05:22:09;2.53;;;1.83;;
10831;SDS011;5469;48.574;8.768;2022-11-27T05:24:42;4.83;;;1.40;;
10831;SDS011;5469;48.574;8.768;2022-11-27T05:27:16;6.50;;;2.47;;
10831;SDS011;5469;48.574;8.768;2022-11-27T05:29:49;5.10;;;2.57;;
10831;SDS011;5469;48.574;8.768;2022-11-27T05:32:22;7.77;;;2.07;;
10831;SDS011;5469;48.574;8.768;2022-11-27T05:34:56;7.83;;;2.27;;
10831;SDS011;5469;48.574;8.768;2022-11-27T05:37:31;3.37;;;1.07;;
10831;SDS011;5469;48.574;8.768;2022-11-27T05:40:05;5.07;;;1.47;;
10831;SDS011;5469;48.574;8.768;2022-11-27T05:42:39;6.03;;;2.13;;
10831;SDS011;5469;48.574;8.768;2022-11-27T05:45:12;4.73;;;1.93;;
10831;SDS011;5469;48.574;8.768;2022-11-27T05:47:46;0.57;;;0.57;;
10831;SDS011;5469;48.574;8.768;2022-11-27T05:50:19;2.93;;;1.30;;
10831;SDS011;5469;48.574;8.768;2022-11-27T05:52:54;3.90;;;1.70;;
10831;SDS011;5469;48.574;8.768;2022-11-27T05:55:27;1.83;;;1.23;;
10831;SDS011;5469;48.574;8.768;2022-11-27T05:58:00;1.83;;;0.87;;
10831;SDS011;5469;48.574;8.768;2022-11-27T06:00:34;0.90;;;0.80;;
10831;SDS011;5469;48.574;8.768;2022-11-27T06:03:07;2.30;;;1.10;;
10831;SDS011;5469;48.574;8.768;2022-11-27T06:05:41;3.37;;;0.73;;
10831;SDS011;5469;48.574;8.768;2022-11-27T06:08:15;2.40;;;1.00;;
10831;SDS011;5469;48.574;8.768;2022-11-27T06:10:50;1.80;;;0.87;;
10831;SDS011;5469;48.574;8.768;2022-11-27T06:13:23;3.10;;;0.37;;
10831;SDS011;5469;48.574;8.768;2022-11-27T06:15:56;2.77;;;1.47;;
10831;SDS011;5469;48.574;8.768;2022-11-27T06:18:30;3.23;;;0.87;;
10831;SDS011;5469;48.574;8.768;2022-11-27T06:21:07;0.50;;;0.50;;
10831;SDS011;5469;48.574;8.768;2022-11-27T06:23:42;1.33;;;0.80;;
10831;SDS011;5469;48.574;8.768;2022-11-27T06:26:17;0.90;;;0.53;;
10831;SDS011;5469;48.574;8.768;2022-11-27T06:28:52;1.07;;;0.83;;
10831;SDS011;5469;48.574;8.768;2022-11-27T06:31:27;0.53;;;0.53;;
10831;SDS011;5469;48.574;8.768;2022-11-27T06:34:02;1.47;;;0.60;;
10831;SDS011;5469;48.574;8.768;2022-11-27T06:36:36;0.33;;;0.33;;
10831;SDS011;5469;48.574;8.768;2022-11-27T06:39:13;0.47;;;0.47;;
10831;SDS011;5469;48.574;8.768;2022-11-27T06:41:46;0.50;;;0.50;;
10831;SDS011;5469;48.574;8.768;2022-11-27T06:44:19;0.40;;;0.30;;
10831;SDS011;5469;48.574;8.768;2022-11-27T06:46:53;2.23;;;0.60;;
10831;SDS011;5469;48.574;8.768;2022-11-27T06:49:26;0.23;;;0.10;;
10831;SDS011;5469;48.574;8.768;2022-11-27T06:51:59;0.67;;;0.30;;
10831;SDS011;5469;48.574;8.768;2022-11-27T06:54:34;0.20;;;0.20;;
10831;SDS011;5469;48.574;8.768;2022-11-27T06:57:08;0.20;;;0.20;;
10831;SDS011;5469;48.574;8.768;2022-11-27T06:59:42;0.30;;;0.30;;
10831;SDS011;5469;48.574;8.768;2022-11-27T07:02:15;0.40;;;0.40;;
10831;SDS011;5469;48.574;8.768;2022-11-27T07:04:48;0.47;;;0.40;;
10831;SDS011;5469;48.574;8.768;2022-11-27T07:07:22;0.80;;;0.60;;
10831;SDS011;5469;48.574;8.768;2022-11-27T07:09:56;0.30;;;0.13;;
10831;SDS011;5469;48.574;8.768;2022-11-27T07:12:30;0.23;;;0.20;;
10831;SDS011;5469;48.574;8.768;2022-11-27T07:15:03;0.10;;;0.10;;
10831;SDS011;5469;48.574;8.768;2022-11-27T07:17:37;0.10;;;0.10;;
10831;SDS011;5469;48.574;8.768;2022-11-27T07:20:12;0.20;;;0.17;;
10831;SDS011;5469;48.574;8.768;2022-11-27T07:22:46;0.10;;;0.10;;
10831;SDS011;5469;48.574;8.768;2022-11-27T07:25:20;1.40;;;0.40;;
10831;SDS011;5469;48.574;8.768;2022-11-27T07:27:54;1.30;;;0.50;;
10831;SDS011;5469;48.574;8.768;2022-11-27T07:30:28;0.63;;;0.20;;
10831;SDS011;5469;48.574;8.768;2022-11-27T07:33:01;0.10;;;0.10;;
10831;SDS011;5469;48.574;8.768;2022-11-27T07:35:35;0.20;;;0.20;;
10831;SDS011;5469;48.574;8.768;2022-11-27T07:38:08;1.70;;;0.30;;
10831;SDS011;5469;48.574;8.768;2022-11-27T07:40:43;0.50;;;0.30;;
10831;SDS011;5469;48.574;8.768;2022-11-27T07:43:16;0.47;;;0.47;;
10831;SDS011;5469;48.574;8.768;2022-11-27T07:45:50;0.30;;;0.27;;
10831;SDS011;5469;48.574;8.768;2022-11-27T07:48:23;1.07;;;0.30;;
10831;SDS011;5469;48.574;8.768;2022-11-27T07:50:57;0.33;;;0.13;;
10831;SDS011;5469;48.574;8.768;2022-11-27T07:53:30;0.23;;;0.23;;
10831;SDS011;5469;48.574;8.768;2022-11-27T07:56:05;0.83;;;0.57;;
10831;SDS011;5469;48.574;8.768;2022-11-27T07:58:40;0.77;;;0.47;;
10831;SDS011;5469;48.574;8.768;2022-11-27T08:01:14;1.33;;;0.17;;
10831;SDS011;5469;48.574;8.768;2022-11-27T08:03:49;0.37;;;0.10;;
10831;SDS011;5469;48.574;8.768;2022-11-27T08:06:23;0.80;;;0.80;;
10831;SDS011;5469;48.574;8.768;2022-11-27T08:08:58;0.30;;;0.30;;
10831;SDS011;5469;48.574;8.768;2022-11-27T08:11:33;0.87;;;0.50;;
10831;SDS011;5469;48.574;8.768;2022-11-27T08:14:07;1.07;;;0.33;;
10831;SDS011;5469;48.574;8.768;2022-11-27T08:16:47;0.30;;;0.20;;
10831;SDS011;5469;48.574;8.768;2022-11-27T08:19:20;2.67;;;1.27;;
10831;SDS011;5469;48.574;8.768;2022-11-27T08:21:54;1.17;;;0.57;;
10831;SDS011;5469;48.574;8.768;2022-11-27T08:24:29;1.40;;;1.30;;
10831;SDS011;5469;48.574;8.768;2022-11-27T08:27:04;1.63;;;0.60;;
10831;SDS011;5469;48.574;8.768;2022-11-27T08:29:38;0.10;;;0.10;;
10831;SDS011;5469;48.574;8.768;2022-11-27T08:32:11;0.10;;;0.10;;
10831;SDS011;5469;48.574;8.768;2022-11-27T08:34:45;0.10;;;0.10;;
10831;SDS011;5469;48.574;8.768;2022-11-27T08:37:19;0.27;;;0.27;;
10831;SDS011;5469;48.574;8.768;2022-11-27T08:39:53;1.07;;;0.37;;
10831;SDS011;5469;48.574;8.768;2022-11-27T08:42:28;0.37;;;0.27;;
10831;SDS011;5469;48.574;8.768;2022-11-27T08:45:02;0.13;;;0.13;;
10831;SDS011;5469;48.574;8.768;2022-11-27T08:47:37;0.60;;;0.20;;
10831;SDS011;5469;48.574;8.768;2022-11-27T08:50:11;0.40;;;0.40;;
10831;SDS011;5469;48.574;8.768;2022-11-27T08:52:44;0.77;;;0.40;;
10831;SDS011;5469;48.574;8.768;2022-11-27T08:55:18;1.30;;;0.33;;
10831;SDS011;5469;48.574;8.768;2022-11-27T08:57:54;0.07;;;0.07;;
10831;SDS011;5469;48.574;8.768;2022-11-27T09:00:27;0.20;;;0.20;;
10831;SDS011;5469;48.574;8.768;2022-11-27T09:03:02;0.20;;;0.07;;
10831;SDS011;5469;48.574;8.768;2022-11-27T09:05:39;0.20;;;0.20;;
10831;SDS011;5469;48.574;8.768;2022-11-27T09:08:14;0.87;;;0.53;;
10831;SDS011;5469;48.574;8.768;2022-11-27T09:10:51;0.40;;;0.37;;
10831;SDS011;5469;48.574;8.768;2022-11-27T09:13:26;1.17;;;0.40;;
10831;SDS011;5469;48.574;8.768;2022-11-27T09:16:00;0.30;;;0.30;;
10831;SDS011;5469;48.574;8.768;2022-11-27T09:18:34;0.17;;;0.17;;
10831;SDS011;5469;48.574;8.768;2022-11-27T09:21:09;0.30;;;0.30;;
10831;SDS011;5469;48.574;8.768;2022-11-27T09:23:43;0.10;;;0.10;;
10831;SDS011;5469;48.574;8.768;2022-11-27T09:26:18;1.07;;;0.67;;
10831;SDS011;5469;48.574;8.768;2022-11-27T09:28:56;0.77;;;0.60;;
10831;SDS011;5469;48.574;8.768;2022-11-27T09:31:30;0.00;;;0.00;;
10831;SDS011;5469;48.574;8.768;2022-11-27T09:34:04;0.30;;;0.30;;
10831;SDS011;5469;48.574;8.768;2022-11-27T09:36:38;0.00;;;0.00;;
10831;SDS011;5469;48.574;8.768;2022-11-27T09:39:12;0.13;;;0.10;;
10831;SDS011;5469;48.574;8.768;2022-11-27T09:41:48;0.60;;;0.27;;
10831;SDS011;5469;48.574;8.768;2022-11-27T09:44:28;0.40;;;0.40;;
10831;SDS011;5469;48.574;8.768;2022-11-27T09:47:09;0.23;;;0.23;;
10831;SDS011;5469;48.574;8.768;2022-11-27T09:49:48;0.30;;;0.30;;
10831;SDS011;5469;48.574;8.768;2022-11-27T09:52:25;0.40;;;0.37;;
10831;SDS011;5469;48.574;8.768;2022-11-27T09:55:10;0.10;;;0.10;;
10831;SDS011;5469;48.574;8.768;2022-11-27T09:57:49;0.60;;;0.43;;
10831;SDS011;5469;48.574;8.768;2022-11-27T10:00:32;3.13;;;0.30;;
10831;SDS011;5469;48.574;8.768;2022-11-27T10:03:07;1.00;;;0.30;;
10831;SDS011;5469;48.574;8.768;2022-11-27T10:05:47;0.10;;;0.10;;
10831;SDS011;5469;48.574;8.768;2022-11-27T10:08:31;0.77;;;0.10;;
10831;SDS011;5469;48.574;8.768;2022-11-27T10:11:13;0.23;;;0.20;;
10831;SDS011;5469;48.574;8.768;2022-11-27T10:14:06;0.80;;;0.67;;
10831;SDS011;5469;48.574;8.768;2022-11-27T10:16:54;0.57;;;0.17;;
10831;SDS011;5469;48.574;8.768;2022-11-27T10:19:34;0.80;;;0.43;;
10831;SDS011;5469;48.574;8.768;2022-11-27T10:22:17;0.27;;;0.23;;
10831;SDS011;5469;48.574;8.768;2022-11-27T10:24:58;0.20;;;0.20;;
10831;SDS011;5469;48.574;8.768;2022-11-27T10:27:41;1.47;;;0.50;;
10831;SDS011;5469;48.574;8.768;2022-11-27T10:30:24;0.83;;;0.30;;
10831;SDS011;5469;48.574;8.768;2022-11-27T10:33:03;0.93;;;0.33;;
10831;SDS011;5469;48.574;8.768;2022-11-27T10:35:47;0.37;;;0.37;;
10831;SDS011;5469;48.574;8.768;2022-11-27T10:38:22;0.23;;;0.23;;
10831;SDS011;5469;48.574;8.768;2022-11-27T10:41:02;0.30;;;0.30;;
10831;SDS011;5469;48.574;8.768;2022-11-27T10:43:43;2.23;;;0.83;;
10831;SDS011;5469;48.574;8.768;2022-11-27T10:46:20;0.47;;;0.37;;
10831;SDS011;5469;48.574;8.768;2022-11-27T10:49:00;0.40;;;0.40;;
10831;SDS011;5469;48.574;8.768;2022-11-27T10:51:35;0.30;;;0.30;;
10831;SDS011;5469;48.574;8.768;2022-11-27T10:54:15;0.53;;;0.33;;
10831;SDS011;5469;48.574;8.768;2022-11-27T10:56:59;0.30;;;0.30;;
10831;SDS011;5469;48.574;8.768;2022-11-27T10:59:46;0.43;;;0.43;;
10831;SDS011;5469;48.574;8.768;2022-11-27T11:02:27;0.50;;;0.40;;
10831;SDS011;5469;48.574;8.768;2022-11-27T11:05:20;0.73;;;0.43;;
10831;SDS011;5469;48.574;8.768;2022-11-27T11:07:56;1.27;;;0.60;;
10831;SDS011;5469;48.574;8.768;2022-11-27T11:10:33;1.77;;;0.90;;
10831;SDS011;5469;48.574;8.768;2022-11-27T11:13:16;0.70;;;0.70;;
10831;SDS011;5469;48.574;8.768;2022-11-27T11:15:52;0.47;;;0.40;;
10831;SDS011;5469;48.574;8.768;2022-11-27T11:18:31;0.50;;;0.50;;
10831;SDS011;5469;48.574;8.768;2022-11-27T11:21:12;0.80;;;0.60;;
10831;SDS011;5469;48.574;8.768;2022-11-27T11:23:50;0.13;;;0.13;;
10831;SDS011;5469;48.574;8.768;2022-11-27T11:26:31;0.53;;;0.53;;
10831;SDS011;5469;48.574;8.768;2022-11-27T11:29:15;0.70;;;0.50;;
10831;SDS011;5469;48.574;8.768;2022-11-27T11:31:57;1.90;;;0.40;;
10831;SDS011;5469;48.574;8.768;2022-11-27T11:34:41;0.40;;;0.40;;
10831;SDS011;5469;48.574;8.768;2022-11-27T11:37:20;0.50;;;0.40;;
10831;SDS011;5469;48.574;8.768;2022-11-27T11:39:57;0.47;;;0.47;;
10831;SDS011;5469;48.574;8.768;2022-11-27T11:42:33;0.70;;;0.70;;
10831;SDS011;5469;48.574;8.768;2022-11-27T11:45:15;0.90;;;0.50;;
10831;SDS011;5469;48.574;8.768;2022-11-27T11:47:51;0.40;;;0.40;;
10831;SDS011;5469;48.574;8.768;2022-11-27T11:50:27;0.30;;;0.30;;
10831;SDS011;5469;48.574;8.768;2022-11-27T11:53:07;0.57;;;0.57;;
10831;SDS011;5469;48.574;8.768;2022-11-27T11:55:50;1.13;;;0.47;;
10831;SDS011;5469;48.574;8.768;2022-11-27T11:58:34;0.93;;;0.60;;
10831;SDS011;5469;48.574;8.768;2022-11-27T12:01:26;0.33;;;0.33;;
10831;SDS011;5469;48.574;8.768;2022-11-27T12:04:16;1.80;;;0.93;;
10831;SDS011;5469;48.574;8.768;2022-11-27T12:07:09;0.40;;;0.40;;
10831;SDS011;5469;48.574;8.768;2022-11-27T12:09:56;1.10;;;0.50;;
10831;SDS011;5469;48.574;8.768;2022-11-27T12:12:41;0.77;;;0.53;;
10831;SDS011;5469;48.574;8.768;2022-11-27T12:15:25;0.50;;;0.50;;
10831;SDS011;5469;48.574;8.768;2022-11-27T12:18:05;0.30;;;0.20;;
10831;SDS011;5469;48.574;8.768;2022-11-27T12:20:49;0.70;;;0.40;;
10831;SDS011;5469;48.574;8.768;2022-11-27T12:23:37;0.27;;;0.27;;
10831;SDS011;5469;48.574;8.768;2022-11-27T12:26:30;0.53;;;0.53;;
10831;SDS011;5469;48.574;8.768;2022-11-27T12:29:29;0.70;;;0.70;;
10831;SDS011;5469;48.574;8.768;2022-11-27T12:32:25;1.40;;;0.63;;
10831;SDS011;5469;48.574;8.768;2022-11-27T12:35:14;1.23;;;0.90;;
10831;SDS011;5469;48.574;8.768;2022-11-27T12:38:18;0.50;;;0.40;;
10831;SDS011;5469;48.574;8.768;2022-11-27T12:41:14;0.73;;;0.20;;
10831;SDS011;5469;48.574;8.768;2022-11-27T12:44:11;1.13;;;0.60;;
10831;SDS011;5469;48.574;8.768;2022-11-27T12:46:53;0.60;;;0.50;;
10831;SDS011;5469;48.574;8.768;2022-11-27T12:49:31;0.60;;;0.57;;
10831;SDS011;5469;48.574;8.768;2022-11-27T12:52:11;1.77;;;0.80;;
10831;SDS011;5469;48.574;8.768;2022-11-27T12:54:49;0.60;;;0.60;;
10831;SDS011;5469;48.574;8.768;2022-11-27T12:57:29;1.40;;;0.87;;
10831;SDS011;5469;48.574;8.768;2022-11-27T13:00:12;0.70;;;0.67;;
10831;SDS011;5469;48.574;8.768;2022-11-27T13:02:52;0.40;;;0.40;;
10831;SDS011;5469;48.574;8.768;2022-11-27T13:05:33;0.70;;;0.50;;
10831;SDS011;5469;48.574;8.768;2022-11-27T13:08:15;0.80;;;0.70;;
10831;SDS011;5469;48.574;8.768;2022-11-27T13:10:53;0.57;;;0.57;;
10831;SDS011;5469;48.574;8.768;2022-11-27T13:13:32;0.50;;;0.50;;
10831;SDS011;5469;48.574;8.768;2022-11-27T13:16:11;1.60;;;0.70;;
10831;SDS011;5469;48.574;8.768;2022-11-27T13:18:51;0.50;;;0.50;;
10831;SDS011;5469;48.574;8.768;2022-11-27T13:21:30;1.17;;;0.80;;
10831;SDS011;5469;48.574;8.768;2022-11-27T13:24:08;0.83;;;0.83;;
10831;SDS011;5469;48.574;8.768;2022-11-27T13:26:45;0.40;;;0.40;;
10831;SDS011;5469;48.574;8.768;2022-11-27T13:29:27;1.60;;;0.90;;
10831;SDS011;5469;48.574;8.768;2022-11-27T13:32:04;1.80;;;1.00;;
10831;SDS011;5469;48.574;8.768;2022-11-27T13:34:41;0.77;;;0.77;;
10831;SDS011;5469;48.574;8.768;2022-11-27T13:37:23;0.80;;;0.70;;
10831;SDS011;5469;48.574;8.768;2022-11-27T13:40:02;0.77;;;0.77;;
10831;SDS011;5469;48.574;8.768;2022-11-27T13:42:41;0.67;;;0.67;;
10831;SDS011;5469;48.574;8.768;2022-11-27T13:45:19;0.93;;;0.93;;
10831;SDS011;5469;48.574;8.768;2022-11-27T13:47:56;1.10;;;0.80;;
10831;SDS011;5469;48.574;8.768;2022-11-27T13:50:31;2.93;;;0.93;;
10831;SDS011;5469;48.574;8.768;2022-11-27T13:53:15;1.10;;;0.90;;
10831;SDS011;5469;48.574;8.768;2022-11-27T13:55:51;0.70;;;0.70;;
10831;SDS011;5469;48.574;8.768;2022-11-27T13:58:29;1.83;;;1.10;;
10831;SDS011;5469;48.574;8.768;2022-11-27T14:01:16;1.27;;;1.00;;
10831;SDS011;5469;48.574;8.768;2022-11-27T14:03:51;1.57;;;1.07;;
10831;SDS011;5469;48.574;8.768;2022-11-27T14:06:25;1.23;;;1.00;;
10831;SDS011;5469;48.574;8.768;2022-11-27T14:09:03;1.37;;;1.10;;
10831;SDS011;5469;48.574;8.768;2022-11-27T14:11:38;2.80;;;1.10;;
10831;SDS011;5469;48.574;8.768;2022-11-27T14:14:17;1.87;;;1.23;;
10831;SDS011;5469;48.574;8.768;2022-11-27T14:16:55;1.60;;;1.23;;
10831;SDS011;5469;48.574;8.768;2022-11-27T14:19:30;1.97;;;1.77;;
10831;SDS011;5469;48.574;8.768;2022-11-27T14:22:12;1.40;;;1.10;;
10831;SDS011;5469;48.574;8.768;2022-11-27T14:24:51;1.43;;;1.33;;
10831;SDS011;5469;48.574;8.768;2022-11-27T14:27:30;2.37;;;1.27;;
10831;SDS011;5469;48.574;8.768;2022-11-27T14:30:10;1.97;;;1.33;;
10831;SDS011;5469;48.574;8.768;2022-11-27T14:32:54;1.10;;;1.00;;
10831;SDS011;5469;48.574;8.768;2022-11-27T14:35:28;1.47;;;1.03;;
10831;SDS011;5469;48.574;8.768;2022-11-27T14:38:08;3.07;;;1.87;;
10831;SDS011;5469;48.574;8.768;2022-11-27T14:40:42;3.00;;;1.00;;
10831;SDS011;5469;48.574;8.768;2022-11-27T14:43:17;1.50;;;1.27;;
10831;SDS011;5469;48.574;8.768;2022-11-27T14:45:55;2.27;;;1.30;;
10831;SDS011;5469;48.574;8.768;2022-11-27T14:48:43;1.53;;;1.10;;
10831;SDS011;5469;48.574;8.768;2022-11-27T14:51:18;1.17;;;1.00;;
10831;SDS011;5469;48.574;8.768;2022-11-27T14:53:57;2.30;;;1.53;;
10831;SDS011;5469;48.574;8.768;2022-11-27T14:56:33;1.77;;;1.13;;
10831;SDS011;5469;48.574;8.768;2022-11-27T14:59:09;2.93;;;1.70;;
10831;SDS011;5469;48.574;8.768;2022-11-27T15:01:56;1.07;;;0.90;;
10831;SDS011;5469;48.574;8.768;2022-11-27T15:04:34;2.97;;;1.47;;
10831;SDS011;5469;48.574;8.768;2022-11-27T15:07:11;2.03;;;1.57;;
10831;SDS011;5469;48.574;8.768;2022-11-27T15:09:48;3.90;;;1.97;;
10831;SDS011;5469;48.574;8.768;2022-11-27T15:12:25;1.23;;;1.13;;
10831;SDS011;5469;48.574;8.768;2022-11-27T15:15:01;4.13;;;1.90;;
10831;SDS011;5469;48.574;8.768;2022-11-27T15:17:37;1.63;;;1.30;;
10831;SDS011;5469;48.574;8.768;2022-11-27T15:20:14;1.27;;;1.17;;
10831;SDS011;5469;48.574;8.768;2022-11-27T15:22:57;2.83;;;1.40;;
10831;SDS011;5469;48.574;8.768;2022-11-27T15:25:35;3.03;;;1.80;;
10831;SDS011;5469;48.574;8.768;2022-11-27T15:31:25;3.03;;;1.70;;
10831;SDS011;5469;48.574;8.768;2022-11-27T15:34:01;2.93;;;1.33;;
10831;SDS011;5469;48.574;8.768;2022-11-27T15:36:39;1.83;;;1.60;;
10831;SDS011;5469;48.574;8.768;2022-11-27T15:39:16;1.40;;;1.30;;
10831;SDS011;5469;48.574;8.768;2022-11-27T15:41:54;1.63;;;1.43;;
10831;SDS011;5469;48.574;8.768;2022-11-27T15:44:30;3.20;;;1.60;;
10831;SDS011;5469;48.574;8.768;2022-11-27T15:47:04;1.63;;;1.30;;
10831;SDS011;5469;48.574;8.768;2022-11-27T15:49:50;1.47;;;1.30;;
10831;SDS011;5469;48.574;8.768;2022-11-27T15:52:25;1.95;;;1.65;;
10831;SDS011;5469;48.574;8.768;2022-11-27T15:54:59;1.40;;;1.30;;
10831;SDS011;5469;48.574;8.768;2022-11-27T15:57:33;2.73;;;1.57;;
10831;SDS011;5469;48.574;8.768;2022-11-27T16:00:08;3.60;;;1.70;;
10831;SDS011;5469;48.574;8.768;2022-11-27T16:02:42;3.53;;;1.70;;
10831;SDS011;5469;48.574;8.768;2022-11-27T16:05:16;2.53;;;1.67;;